createdAt,value
2023-01-11T00:02:22.594Z,5.21
2023-01-11T00:04:50.671Z,5.13
2023-01-11T00:07:18.670Z,5.13
2023-01-11T00:09:47.983Z,5.15
2023-01-11T00:12:16.446Z,5.17
2023-01-11T00:14:44.219Z,5.17
2023-01-11T00:17:12.028Z,5.24
2023-01-11T00:19:40.000Z,5.09
2023-01-11T00:22:07.845Z,5.20
2023-01-11T00:24:35.581Z,5.12
2023-01-11T00:27:03.453Z,4.94
2023-01-11T00:29:31.472Z,4.83
2023-01-11T00:31:59.303Z,4.75
2023-01-11T00:34:27.155Z,4.68
2023-01-11T00:36:55.139Z,4.62
2023-01-11T00:39:22.958Z,4.56
2023-01-11T00:42:09.180Z,4.44
2023-01-11T00:44:55.879Z,4.51
2023-01-11T00:47:42.507Z,4.35
2023-01-11T00:50:11.290Z,4.31
2023-01-11T00:52:39.059Z,4.15
2023-01-11T00:55:07.139Z,4.09
2023-01-11T00:57:35.139Z,4.02
2023-01-11T01:00:04.079Z,4.07
2023-01-11T01:02:34.017Z,4.12
2023-01-11T01:05:02.019Z,4.23
2023-01-11T01:07:30.180Z,4.16
2023-01-11T01:09:58.117Z,4.13
2023-01-11T01:12:55.034Z,4.13
2023-01-11T01:15:23.946Z,4.21
2023-01-11T01:17:55.307Z,4.30
2023-01-11T01:20:24.020Z,4.24
2023-01-11T01:22:52.189Z,4.33
2023-01-11T01:25:20.156Z,4.34
2023-01-11T01:27:48.015Z,4.29
2023-01-11T01:30:15.926Z,4.31
2023-01-11T01:32:43.945Z,4.40
2023-01-11T01:35:11.828Z,4.51
2023-01-11T01:37:39.613Z,4.48
2023-01-11T01:40:07.763Z,4.44
2023-01-11T01:42:35.491Z,4.46
2023-01-11T01:45:07.163Z,4.52
2023-01-11T01:47:49.151Z,4.55
2023-01-11T01:50:17.119Z,4.56
2023-01-11T01:52:47.566Z,4.47
2023-01-11T01:55:21.463Z,4.45
2023-01-11T01:57:51.964Z,4.48
2023-01-11T02:00:20.098Z,4.57
2023-01-11T02:02:49.116Z,4.53
2023-01-11T02:05:17.511Z,4.50
2023-01-11T02:07:46.280Z,4.52
2023-01-11T02:10:16.230Z,4.52
2023-01-11T02:12:46.835Z,4.49
2023-01-11T02:15:15.048Z,4.58
2023-01-11T02:17:43.100Z,4.63
2023-01-11T02:20:14.137Z,4.66
2023-01-11T02:22:51.238Z,4.70
2023-01-11T02:25:42.226Z,4.69
2023-01-11T02:28:18.101Z,4.75
2023-01-11T02:31:03.682Z,4.85
2023-01-11T02:34:00.915Z,4.98
2023-01-11T02:36:44.427Z,5.10
2023-01-11T02:39:18.071Z,5.19
2023-01-11T02:42:31.077Z,5.23
2023-01-11T02:45:17.171Z,5.26
2023-01-11T02:48:02.575Z,5.24
2023-01-11T02:50:33.203Z,5.21
2023-01-11T02:53:16.289Z,5.21
2023-01-11T02:55:54.173Z,5.17
2023-01-11T02:58:33.217Z,5.19
2023-01-11T03:01:01.192Z,5.18
2023-01-11T03:03:29.553Z,5.14
2023-01-11T03:06:00.194Z,5.15
2023-01-11T03:08:34.251Z,5.13
2023-01-11T03:11:06.918Z,5.11
2023-01-11T03:13:57.671Z,5.12
2023-01-11T03:16:34.564Z,5.13
2023-01-11T03:19:14.576Z,5.12
2023-01-11T03:21:58.474Z,5.10
2023-01-11T03:24:29.501Z,5.05
2023-01-11T03:27:00.275Z,5.07
2023-01-11T03:29:34.751Z,5.15
2023-01-11T03:32:05.837Z,5.18
2023-01-11T03:34:33.612Z,5.24
2023-01-11T03:37:11.050Z,5.30
2023-01-11T03:39:47.418Z,5.33
2023-01-11T03:42:17.430Z,5.38
2023-01-11T03:44:47.964Z,5.40
2023-01-11T03:47:17.373Z,5.41
2023-01-11T03:49:47.722Z,5.41
2023-01-11T03:52:16.827Z,5.33
2023-01-11T03:54:45.563Z,5.27
2023-01-11T03:57:17.942Z,5.19
2023-01-11T03:59:45.840Z,5.15
2023-01-11T04:02:25.758Z,5.14
2023-01-11T04:04:53.724Z,5.15
2023-01-11T04:07:21.659Z,5.18
2023-01-11T04:09:49.668Z,5.25
2023-01-11T04:12:17.560Z,5.34
2023-01-11T04:14:45.373Z,5.41
2023-01-11T04:17:13.221Z,5.38
2023-01-11T04:19:41.144Z,5.27
2023-01-11T04:22:09.063Z,5.16
2023-01-11T04:24:36.842Z,5.20
2023-01-11T04:27:04.549Z,5.22
2023-01-11T04:29:32.329Z,5.24
2023-01-11T04:32:00.147Z,5.18
2023-01-11T04:34:28.252Z,5.06
2023-01-11T04:36:56.137Z,5.03
2023-01-11T04:39:23.950Z,5.08
2023-01-11T04:42:10.262Z,5.14
2023-01-11T04:44:38.053Z,5.17
2023-01-11T04:47:05.927Z,5.21
2023-01-11T04:49:33.848Z,5.24
2023-01-11T04:52:01.616Z,5.26
2023-01-11T04:54:29.611Z,5.30
2023-01-11T04:56:57.945Z,5.28
2023-01-11T04:59:25.823Z,5.29
2023-01-11T05:01:53.709Z,5.31
2023-01-11T05:04:22.816Z,5.35
2023-01-11T05:06:50.819Z,5.40
2023-01-11T05:09:20.545Z,5.48
2023-01-11T05:11:48.555Z,5.54
2023-01-11T05:14:16.788Z,5.59
2023-01-11T05:16:44.756Z,5.67
2023-01-11T05:19:13.147Z,5.73
2023-01-11T05:21:43.506Z,5.76
2023-01-11T05:24:13.104Z,5.83
2023-01-11T05:26:42.057Z,5.87
2023-01-11T05:29:14.009Z,5.89
2023-01-11T05:31:42.388Z,5.94
2023-01-11T05:34:12.256Z,5.94
2023-01-11T05:36:40.569Z,5.95
2023-01-11T05:39:08.893Z,6.00
2023-01-11T05:41:36.748Z,6.05
2023-01-11T05:44:23.247Z,6.05
2023-01-11T05:46:51.036Z,6.06
2023-01-11T05:49:18.868Z,6.05
2023-01-11T05:51:46.704Z,6.08
2023-01-11T05:54:15.328Z,6.09
2023-01-11T05:56:43.213Z,6.08
2023-01-11T05:59:11.585Z,6.10
2023-01-11T06:01:39.489Z,6.20
2023-01-11T06:04:08.893Z,6.26
2023-01-11T06:06:36.880Z,6.30
2023-01-11T06:09:05.013Z,6.35
2023-01-11T06:11:33.055Z,6.37
2023-01-11T06:14:00.879Z,6.43
2023-01-11T06:16:28.747Z,6.47
2023-01-11T06:18:57.189Z,6.48
2023-01-11T06:21:25.274Z,6.49
2023-01-11T06:23:53.167Z,6.54
2023-01-11T06:26:22.053Z,6.59
2023-01-11T06:28:50.934Z,6.59
2023-01-11T06:31:19.785Z,6.59
2023-01-11T06:33:47.802Z,6.60
2023-01-11T06:36:16.281Z,6.54
2023-01-11T06:38:44.277Z,6.63
2023-01-11T06:41:12.607Z,6.70
2023-01-11T06:43:41.958Z,6.73
2023-01-11T06:46:11.560Z,6.72
2023-01-11T06:48:39.442Z,6.74
2023-01-11T06:51:07.370Z,6.81
2023-01-11T06:53:35.447Z,6.79
2023-01-11T06:56:03.180Z,6.76
2023-01-11T06:58:31.003Z,6.76
2023-01-11T07:00:59.056Z,6.74
2023-01-11T07:03:27.472Z,6.70
2023-01-11T07:05:59.271Z,6.71
2023-01-11T07:08:27.479Z,6.70
2023-01-11T07:10:55.779Z,6.72
2023-01-11T07:13:23.533Z,6.75
2023-01-11T07:15:54.237Z,6.78
2023-01-11T07:18:22.079Z,6.81
2023-01-11T07:20:50.843Z,6.93
2023-01-11T07:23:18.668Z,7.01
2023-01-11T07:25:48.109Z,7.06
2023-01-11T07:28:16.265Z,7.10
2023-01-11T07:30:57.271Z,7.16
2023-01-11T07:33:27.712Z,7.18
2023-01-11T07:35:55.826Z,7.20
2023-01-11T07:38:24.033Z,7.26
2023-01-11T07:40:52.054Z,7.28
2023-01-11T07:43:23.229Z,7.24
2023-01-11T07:45:52.192Z,7.23
2023-01-11T07:48:27.818Z,7.25
2023-01-11T07:50:56.218Z,7.26
2023-01-11T07:53:26.656Z,7.26
2023-01-11T07:55:57.373Z,7.25
2023-01-11T07:58:25.154Z,7.22
2023-01-11T08:00:53.017Z,7.27
2023-01-11T08:03:21.020Z,7.26
2023-01-11T08:05:50.191Z,7.31
2023-01-11T08:08:18.409Z,7.39
2023-01-11T08:10:46.201Z,7.46
2023-01-11T08:13:32.738Z,7.50
2023-01-11T08:16:00.740Z,7.46
2023-01-11T08:18:30.261Z,7.37
2023-01-11T08:20:58.086Z,7.40
2023-01-11T08:23:27.283Z,7.44
2023-01-11T08:25:58.143Z,7.45
2023-01-11T08:28:26.358Z,7.45
2023-01-11T08:30:54.186Z,7.54
2023-01-11T08:33:22.168Z,7.65
2023-01-11T08:35:50.173Z,7.71
2023-01-11T08:38:17.998Z,7.81
2023-01-11T08:40:45.814Z,7.89
2023-01-11T08:43:13.676Z,7.98
2023-01-11T08:45:41.554Z,8.10
2023-01-11T08:48:09.459Z,8.15
2023-01-11T08:50:37.427Z,8.21
2023-01-11T08:53:05.206Z,8.21
2023-01-11T08:55:34.115Z,8.15
2023-01-11T08:58:01.908Z,8.16
2023-01-11T09:00:29.706Z,8.18
2023-01-11T09:03:00.208Z,8.29
2023-01-11T09:05:28.234Z,8.35
2023-01-11T09:07:56.650Z,8.35
2023-01-11T09:10:27.495Z,8.41
2023-01-11T09:12:55.861Z,8.45
2023-01-11T09:15:25.567Z,8.40
2023-01-11T09:17:53.508Z,8.37
2023-01-11T09:20:23.722Z,8.43
2023-01-11T09:22:53.376Z,8.47
2023-01-11T09:25:21.587Z,8.50
2023-01-11T09:27:50.637Z,8.51
2023-01-11T09:30:19.680Z,8.53
2023-01-11T09:32:48.012Z,8.50
2023-01-11T09:35:19.331Z,8.50
2023-01-11T09:37:51.534Z,8.54
2023-01-11T09:40:21.780Z,8.53
2023-01-11T09:42:54.819Z,8.58
2023-01-11T09:45:25.108Z,8.59
2023-01-11T09:48:06.099Z,8.61
2023-01-11T09:50:41.855Z,8.61
2023-01-11T09:53:16.123Z,8.63
2023-01-11T09:55:46.739Z,8.69
2023-01-11T09:58:16.147Z,8.83
2023-01-11T10:01:01.468Z,8.90
2023-01-11T10:03:49.957Z,8.94
2023-01-11T10:06:30.119Z,8.96
2023-01-11T10:18:26.621Z,9.11
2023-01-11T10:18:38.363Z,9.19
2023-01-11T10:20:55.187Z,9.24
2023-01-11T10:23:33.011Z,9.30
2023-01-11T10:26:07.324Z,9.36
2023-01-11T10:28:43.252Z,9.40
2023-01-11T10:31:33.901Z,9.40
2023-01-11T10:34:21.122Z,9.31
2023-01-11T10:37:21.068Z,9.32
2023-01-11T10:40:27.937Z,9.35
2023-01-11T10:43:03.408Z,9.32
2023-01-11T10:45:37.705Z,9.32
2023-01-11T10:48:07.664Z,9.31
2023-01-11T10:50:35.510Z,9.34
2023-01-11T10:53:20.652Z,9.32
2023-01-11T10:55:58.106Z,9.28
2023-01-11T10:58:29.933Z,9.32
2023-01-11T11:01:01.194Z,9.35
2023-01-11T11:03:40.500Z,9.39
2023-01-11T11:06:27.317Z,9.41
2023-01-11T11:08:55.096Z,9.38
2023-01-11T11:11:30.562Z,9.36
2023-01-11T11:14:07.517Z,9.37
2023-01-11T11:16:43.973Z,9.34
2023-01-11T11:19:15.182Z,9.28
2023-01-11T11:21:43.444Z,9.31
2023-01-11T11:24:17.688Z,9.29
2023-01-11T11:26:51.810Z,9.27
2023-01-11T11:29:21.094Z,9.26
2023-01-11T11:31:49.947Z,9.27
2023-01-11T11:34:19.163Z,9.29
2023-01-11T11:36:48.936Z,9.22
2023-01-11T11:39:23.268Z,9.19
2023-01-11T11:41:54.361Z,9.13
2023-01-11T11:44:26.599Z,8.94
2023-01-11T11:47:00.644Z,8.87
2023-01-11T11:49:30.023Z,8.85
2023-01-11T11:51:58.893Z,8.73
2023-01-11T11:54:29.931Z,8.67
2023-01-11T11:57:00.276Z,8.61
2023-01-11T11:59:29.888Z,8.64
2023-01-11T12:02:02.143Z,8.69
2023-01-11T12:04:32.621Z,8.72
2023-01-11T12:07:20.763Z,8.79
2023-01-11T12:10:00.218Z,8.80
2023-01-11T12:12:30.373Z,8.80
2023-01-11T12:15:16.686Z,8.77
2023-01-11T12:17:44.761Z,8.72
2023-01-11T12:20:21.810Z,8.75
2023-01-11T12:22:52.026Z,8.80
2023-01-11T12:25:27.371Z,8.83
2023-01-11T12:28:01.861Z,8.85
2023-01-11T12:30:30.400Z,8.82
2023-01-11T12:33:01.214Z,8.86
2023-01-11T12:35:34.044Z,8.93
2023-01-11T12:38:10.509Z,8.95
2023-01-11T12:40:47.626Z,8.91
2023-01-11T12:43:19.381Z,8.88
2023-01-11T12:45:55.989Z,8.92
2023-01-11T12:48:29.772Z,8.95
2023-01-11T12:51:23.852Z,8.94
2023-01-11T12:53:51.605Z,8.91
2023-01-11T12:56:22.453Z,8.85
2023-01-11T12:59:06.805Z,8.84
2023-01-11T13:01:44.024Z,8.80
2023-01-11T13:04:41.868Z,8.73
2023-01-11T13:07:12.748Z,8.42
2023-01-11T13:09:59.404Z,7.97
2023-01-11T13:12:34.812Z,7.85
2023-01-11T13:15:18.092Z,7.32
2023-01-11T13:17:45.865Z,7.16
2023-01-11T13:20:22.962Z,7.12
2023-01-11T13:22:53.518Z,7.13
2023-01-11T13:25:23.946Z,7.01
2023-01-11T13:27:52.937Z,6.79
2023-01-11T13:30:24.412Z,6.79
2023-01-11T13:33:02.619Z,6.63
2023-01-11T13:35:30.506Z,6.54
2023-01-11T13:38:24.823Z,6.49
2023-01-11T13:40:53.579Z,6.40
2023-01-11T13:43:37.453Z,6.32
2023-01-11T13:46:11.013Z,6.09
2023-01-11T13:48:51.388Z,6.10
2023-01-11T13:51:44.589Z,6.12
2023-01-11T13:54:24.455Z,6.05
2023-01-11T13:57:01.612Z,5.87
2023-01-11T13:59:44.347Z,5.65
2023-01-11T14:02:44.801Z,5.73
2023-01-11T14:05:21.314Z,5.79
2023-01-11T14:08:01.222Z,5.79
2023-01-11T14:10:56.649Z,5.79
2023-01-11T14:13:43.008Z,5.71
2023-01-11T14:16:31.467Z,5.76
2023-01-11T14:19:05.370Z,5.56
2023-01-11T14:21:39.201Z,5.49
2023-01-11T14:24:11.420Z,5.37
2023-01-11T14:26:42.231Z,5.32
2023-01-11T14:29:18.004Z,5.31
2023-01-11T14:32:04.312Z,5.45
2023-01-11T14:34:42.921Z,5.40
2023-01-11T14:37:19.972Z,5.47
2023-01-11T14:40:05.660Z,5.41
2023-01-11T14:42:39.787Z,5.42
2023-01-11T14:45:27.251Z,5.41
2023-01-11T14:47:58.935Z,5.43
2023-01-11T14:50:28.224Z,5.39
2023-01-11T14:52:58.104Z,5.31
2023-01-11T14:55:28.119Z,5.29
2023-01-11T14:57:55.922Z,5.26
2023-01-11T15:00:23.718Z,5.20
2023-01-11T15:02:51.529Z,5.16
2023-01-11T15:05:31.708Z,5.17
2023-01-11T15:08:14.960Z,5.19
2023-01-11T15:10:51.628Z,5.18
2023-01-11T15:13:22.420Z,5.17
2023-01-11T15:16:23.995Z,5.18
2023-01-11T15:18:52.836Z,5.21
2023-01-11T15:21:27.340Z,5.22
2023-01-11T15:23:58.643Z,5.19
2023-01-11T15:26:29.215Z,5.14
2023-01-11T15:29:01.373Z,5.22
2023-01-11T15:31:39.142Z,5.16
2023-01-11T15:34:45.836Z,5.18
2023-01-11T15:37:26.123Z,5.24
2023-01-11T15:39:58.608Z,5.23
2023-01-11T15:42:38.603Z,5.09
2023-01-11T15:45:27.670Z,5.04
2023-01-11T15:48:04.788Z,4.83
2023-01-11T15:50:33.450Z,4.81
2023-01-11T15:53:16.931Z,4.77
2023-01-11T15:55:48.203Z,4.77
2023-01-11T15:58:34.935Z,4.74
2023-01-11T16:01:11.878Z,4.85
2023-01-11T16:03:39.788Z,4.96
2023-01-11T16:06:26.542Z,4.96
2023-01-11T16:09:13.161Z,4.85
2023-01-11T16:11:50.254Z,4.89
2023-01-11T16:14:20.894Z,4.93
2023-01-11T16:16:51.794Z,4.88
2023-01-11T16:19:21.133Z,4.92
2023-01-11T16:21:51.474Z,4.83
2023-01-11T16:24:20.912Z,4.85
2023-01-11T16:27:00.167Z,4.80
2023-01-11T16:29:36.060Z,4.80
2023-01-11T16:32:21.131Z,4.81
2023-01-11T16:34:52.122Z,4.84
2023-01-11T16:37:23.500Z,4.81
2023-01-11T16:39:53.532Z,4.71
2023-01-11T16:42:22.673Z,4.62
2023-01-11T16:44:55.662Z,4.53
2023-01-11T16:47:23.459Z,4.50
2023-01-11T16:50:11.531Z,4.38
2023-01-11T16:52:45.059Z,4.42
2023-01-11T16:55:34.089Z,4.35
2023-01-11T16:58:20.810Z,4.31
2023-01-11T17:00:59.881Z,4.22
2023-01-11T17:03:29.747Z,4.16
2023-01-11T17:05:57.540Z,4.27
2023-01-11T17:08:33.255Z,4.28
2023-01-11T17:11:10.698Z,4.19
2023-01-11T17:13:53.803Z,4.14
2023-01-11T17:16:23.818Z,4.12
2023-01-11T17:18:51.913Z,4.02
2023-01-11T17:21:23.500Z,3.98
2023-01-11T17:23:52.693Z,3.96
2023-01-11T17:26:25.709Z,4.02
2023-01-11T17:28:57.456Z,3.98
2023-01-11T17:31:27.637Z,4.04
2023-01-11T17:34:02.919Z,4.10
2023-01-11T17:36:32.119Z,4.04
2023-01-11T17:39:00.385Z,3.99
2023-01-11T17:41:46.988Z,3.88
2023-01-11T17:44:35.739Z,3.86
2023-01-11T17:47:06.445Z,3.83
2023-01-11T17:49:34.892Z,3.85
2023-01-11T17:52:32.455Z,3.83
2023-01-11T17:55:13.738Z,3.75
2023-01-11T17:57:41.608Z,3.74
2023-01-11T18:00:26.669Z,3.71
2023-01-11T18:02:55.473Z,3.62
2023-01-11T18:05:25.923Z,3.60
2023-01-11T18:07:56.952Z,3.56
2023-01-11T18:10:27.004Z,3.52
2023-01-11T18:12:56.608Z,3.50
2023-01-11T18:15:27.448Z,3.45
2023-01-11T18:17:57.186Z,3.46
2023-01-11T18:20:35.830Z,3.41
2023-01-11T18:23:13.343Z,3.37
2023-01-11T18:25:41.592Z,3.24
2023-01-11T18:28:12.438Z,3.29
2023-01-11T18:30:45.763Z,3.25
2023-01-11T18:33:25.445Z,3.18
2023-01-11T18:35:54.639Z,3.16
2023-01-11T18:38:24.635Z,3.08
2023-01-11T18:40:53.471Z,3.10
2023-01-11T18:43:25.807Z,3.12
2023-01-11T18:45:56.239Z,3.10
2023-01-11T18:48:24.169Z,3.05
2023-01-11T18:50:54.590Z,3.02
2023-01-11T18:53:24.493Z,3.00
2023-01-11T18:55:52.337Z,2.93
2023-01-11T18:58:20.112Z,2.98
2023-01-11T19:00:48.495Z,2.90
2023-01-11T19:03:16.468Z,2.90
2023-01-11T19:05:45.052Z,2.90
2023-01-11T19:08:12.889Z,2.88
2023-01-11T19:10:40.729Z,2.70
2023-01-11T19:13:08.701Z,2.65
2023-01-11T19:15:36.721Z,2.63
2023-01-11T19:18:04.642Z,2.64
2023-01-11T19:20:32.436Z,2.62
2023-01-11T19:23:00.650Z,-75.70
2023-01-11T19:25:28.718Z,-79.42
2023-01-11T19:27:56.567Z,-75.78
2023-01-11T19:30:24.453Z,-83.08
2023-01-11T19:32:53.431Z,-105.54
2023-01-11T19:35:23.982Z,-75.86
2023-01-11T19:37:51.972Z,-128.00
2023-01-11T19:40:21.420Z,-101.91
2023-01-11T19:42:52.425Z,2.45
2023-01-11T19:45:20.430Z,2.40
2023-01-11T19:47:48.318Z,2.27
2023-01-11T19:50:17.152Z,2.28
2023-01-11T19:52:46.876Z,2.30
2023-01-11T19:55:14.973Z,2.28
2023-01-11T19:57:42.728Z,2.27
2023-01-11T20:00:13.508Z,2.21
2023-01-11T20:02:42.687Z,2.22
2023-01-11T20:05:11.191Z,2.26
2023-01-11T20:07:39.273Z,2.25
2023-01-11T20:10:07.520Z,2.24
2023-01-11T20:12:35.391Z,2.24
2023-01-11T20:15:03.514Z,2.13
2023-01-11T20:17:31.303Z,2.15
2023-01-11T20:20:00.186Z,2.17
2023-01-11T20:22:28.737Z,2.24
2023-01-11T20:24:56.570Z,2.26
2023-01-11T20:27:24.613Z,2.24
2023-01-11T20:29:52.535Z,2.27
2023-01-11T20:32:39.821Z,2.25
2023-01-11T20:35:08.755Z,2.26
2023-01-11T20:37:37.604Z,2.30
2023-01-11T20:40:05.861Z,2.29
2023-01-11T20:42:34.430Z,2.32
2023-01-11T20:45:02.246Z,2.30
2023-01-11T20:47:32.850Z,2.31
2023-01-11T20:50:00.673Z,2.33
2023-01-11T20:52:28.611Z,2.31
2023-01-11T20:54:56.467Z,2.33
2023-01-11T20:57:24.438Z,2.37
2023-01-11T20:59:53.435Z,2.43
2023-01-11T21:02:21.289Z,2.42
2023-01-11T21:04:49.181Z,2.46
2023-01-11T21:07:16.997Z,2.50
2023-01-11T21:09:44.836Z,2.46
2023-01-11T21:12:13.245Z,2.46
2023-01-11T21:14:41.209Z,2.40
2023-01-11T21:17:09.778Z,2.37
2023-01-11T21:19:37.594Z,2.40
2023-01-11T21:22:05.486Z,2.42
2023-01-11T21:24:33.305Z,2.45
2023-01-11T21:27:01.261Z,2.47
2023-01-11T21:29:31.797Z,2.41
2023-01-11T21:31:59.601Z,2.41
2023-01-11T21:34:27.561Z,2.39
2023-01-11T21:36:55.392Z,2.41
2023-01-11T21:39:23.173Z,2.41
2023-01-11T21:41:58.860Z,2.42
2023-01-11T21:44:34.375Z,2.40
2023-01-11T21:47:03.606Z,2.42
2023-01-11T21:49:32.239Z,2.42
2023-01-11T21:52:00.581Z,2.41
2023-01-11T21:54:28.426Z,2.42
2023-01-11T21:56:56.442Z,2.48
2023-01-11T21:59:24.886Z,2.51
2023-01-11T22:01:52.765Z,2.46
2023-01-11T22:04:21.605Z,2.43
2023-01-11T22:06:55.356Z,2.45
2023-01-11T22:09:26.491Z,2.48
2023-01-11T22:11:55.491Z,2.47
2023-01-11T22:14:23.371Z,2.48
2023-01-11T22:16:52.965Z,2.54
2023-01-11T22:19:20.880Z,2.56
2023-01-11T22:21:48.798Z,2.53
2023-01-11T22:24:17.949Z,2.54
2023-01-11T22:26:45.830Z,2.62
2023-01-11T22:29:16.854Z,2.70
2023-01-11T22:31:50.801Z,2.81
2023-01-11T22:34:19.322Z,2.89
2023-01-11T22:36:47.558Z,2.94
2023-01-11T22:39:16.354Z,2.98
2023-01-11T22:41:46.089Z,3.05
2023-01-11T22:44:14.131Z,3.10
2023-01-11T22:46:42.529Z,3.15
2023-01-11T22:49:11.129Z,3.20
2023-01-11T22:51:40.116Z,3.22
2023-01-11T22:54:08.035Z,3.25
2023-01-11T22:56:35.835Z,3.28
2023-01-11T22:59:03.813Z,3.30
2023-01-11T23:01:32.997Z,3.32
2023-01-11T23:04:01.352Z,3.33
2023-01-11T23:06:33.046Z,3.35
2023-01-11T23:09:01.182Z,3.37
2023-01-11T23:11:48.857Z,3.43
2023-01-11T23:14:18.538Z,3.50
2023-01-11T23:16:49.174Z,3.53
2023-01-11T23:19:17.807Z,3.60
2023-01-11T23:21:46.345Z,3.65
2023-01-11T23:24:15.310Z,3.65
2023-01-11T23:26:43.567Z,3.65
2023-01-11T23:29:11.507Z,3.64
2023-01-11T23:31:39.448Z,3.69
2023-01-11T23:34:08.581Z,3.73
2023-01-11T23:36:37.484Z,3.73
2023-01-11T23:39:06.385Z,3.72
2023-01-11T23:41:52.871Z,3.73
2023-01-11T23:44:22.368Z,-75.30
2023-01-11T23:47:09.632Z,3.79
2023-01-11T23:49:37.929Z,3.84
2023-01-11T23:52:06.370Z,3.88
2023-01-11T23:54:34.205Z,3.89
2023-01-11T23:57:02.806Z,3.87
2023-01-11T23:59:30.669Z,3.86
